createdAt,value
2019-04-29T00:01:55.450Z,6.15
2019-04-29T00:07:03.045Z,7.68
2019-04-29T00:12:10.677Z,7.82
2019-04-29T00:17:18.282Z,8.61
2019-04-29T00:22:25.963Z,7.74
2019-04-29T00:27:33.566Z,9.01
2019-04-29T00:32:41.236Z,8.34
2019-04-29T00:37:48.866Z,9.10
2019-04-29T00:42:56.542Z,9.45
2019-04-29T00:48:04.156Z,8.93
2019-04-29T00:53:11.793Z,10.24
2019-04-29T00:58:19.392Z,9.20
2019-04-29T01:03:27.006Z,9.40
2019-04-29T01:08:34.609Z,9.62
2019-04-29T01:13:42.290Z,8.30
2019-04-29T01:18:49.912Z,9.18
2019-04-29T01:23:57.551Z,9.05
2019-04-29T01:29:05.156Z,9.04
2019-04-29T01:34:12.805Z,9.48
2019-04-29T01:39:20.407Z,9.61
2019-04-29T01:44:28.141Z,11.92
2019-04-29T01:49:35.721Z,11.11
2019-04-29T01:54:43.390Z,10.95
2019-04-29T01:59:51.005Z,9.90
2019-04-29T02:04:58.664Z,12.12
2019-04-29T02:10:06.304Z,13.12
2019-04-29T02:15:14.000Z,13.15
2019-04-29T02:20:21.592Z,13.26
2019-04-29T02:25:29.241Z,15.38
2019-04-29T02:30:36.818Z,15.27
2019-04-29T02:35:44.466Z,16.26
2019-04-29T02:40:52.095Z,16.74
2019-04-29T02:45:59.715Z,17.24
2019-04-29T02:51:07.316Z,16.99
2019-04-29T02:56:15.052Z,17.65
2019-04-29T03:01:22.647Z,16.38
2019-04-29T03:06:30.274Z,17.31
2019-04-29T03:11:37.879Z,17.10
2019-04-29T03:16:45.575Z,15.89
2019-04-29T03:21:53.197Z,15.82
2019-04-29T03:27:00.890Z,16.24
2019-04-29T03:32:08.502Z,15.63
2019-04-29T03:37:16.185Z,14.66
2019-04-29T03:42:23.805Z,15.57
2019-04-29T03:47:31.480Z,16.70
2019-04-29T03:52:39.109Z,16.05
2019-04-29T03:57:46.725Z,14.59
2019-04-29T04:02:54.307Z,16.09
2019-04-29T04:08:01.959Z,15.48
2019-04-29T04:13:09.552Z,16.45
2019-04-29T04:18:17.229Z,17.34
2019-04-29T04:23:24.852Z,20.13
2019-04-29T04:28:32.528Z,20.24
2019-04-29T04:33:40.153Z,18.89
2019-04-29T04:38:47.830Z,18.91
2019-04-29T04:43:55.460Z,21.59
2019-04-29T04:49:03.151Z,24.11
2019-04-29T04:54:10.778Z,23.51
2019-04-29T04:59:18.425Z,23.46
2019-04-29T05:04:26.004Z,23.78
2019-04-29T05:09:33.703Z,25.97
2019-04-29T05:14:41.294Z,28.57
2019-04-29T05:19:49.065Z,33.10
2019-04-29T05:24:56.651Z,27.40
2019-04-29T05:30:04.297Z,26.32
2019-04-29T05:35:11.894Z,23.28
2019-04-29T05:40:19.561Z,21.85
2019-04-29T05:45:27.169Z,22.69
2019-04-29T05:50:34.798Z,21.18
2019-04-29T05:55:42.439Z,20.70
2019-04-29T06:00:50.080Z,22.44
2019-04-29T06:05:57.672Z,20.59
2019-04-29T06:11:05.297Z,19.85
2019-04-29T06:16:15.985Z,20.43
2019-04-29T06:21:20.079Z,19.06
2019-04-29T06:26:27.685Z,19.16
2019-04-29T06:31:35.337Z,19.34
2019-04-29T06:36:42.953Z,19.61
2019-04-29T06:41:50.781Z,17.76
2019-04-29T06:46:58.397Z,18.55
2019-04-29T06:52:06.095Z,20.35
2019-04-29T06:57:13.709Z,19.53
2019-04-29T07:02:21.361Z,18.25
2019-04-29T07:07:28.970Z,18.58
2019-04-29T07:12:36.824Z,19.37
2019-04-29T07:17:44.437Z,19.00
2019-04-29T07:22:52.070Z,19.21
2019-04-29T07:27:59.669Z,16.59
2019-04-29T07:33:07.334Z,17.79
2019-04-29T07:38:14.936Z,16.83
2019-04-29T07:43:22.675Z,16.04
2019-04-29T07:48:30.284Z,14.98
2019-04-29T07:53:45.315Z,18.48
2019-04-29T07:58:45.041Z,15.63
2019-04-29T08:03:52.818Z,16.69
2019-04-29T08:09:07.388Z,17.69
2019-04-29T08:14:07.731Z,14.99
2019-04-29T08:19:15.355Z,15.45
2019-04-29T08:24:22.984Z,13.41
2019-04-29T08:29:30.804Z,13.35
2019-04-29T08:34:40.748Z,12.51
2019-04-29T08:39:44.981Z,13.53
2019-04-29T08:44:54.776Z,15.33
2019-04-29T08:49:59.765Z,16.63
2019-04-29T08:55:07.380Z,16.05
2019-04-29T09:00:14.980Z,15.78
2019-04-29T09:05:22.647Z,14.61
2019-04-29T09:10:33.115Z,14.08
2019-04-29T09:15:37.438Z,14.15
2019-04-29T09:20:45.044Z,13.81
2019-04-29T09:26:02.489Z,14.65
2019-04-29T09:30:59.891Z,11.76
2019-04-29T09:36:09.725Z,14.13
2019-04-29T09:41:14.682Z,16.02
2019-04-29T09:46:22.370Z,14.97
2019-04-29T09:51:29.959Z,15.64
2019-04-29T09:56:37.579Z,15.37
2019-04-29T10:01:45.181Z,16.11
2019-04-29T10:06:52.839Z,17.02
2019-04-29T10:12:00.429Z,14.13
2019-04-29T10:17:11.212Z,15.94
2019-04-29T10:22:15.190Z,16.38
2019-04-29T10:27:22.947Z,15.40
2019-04-29T10:32:30.518Z,16.80
2019-04-29T10:37:38.200Z,16.27
2019-04-29T10:42:45.814Z,14.71
2019-04-29T10:47:53.549Z,14.58
2019-04-29T10:53:01.091Z,15.85
2019-04-29T10:58:08.845Z,11.49
2019-04-29T11:03:16.533Z,14.34
2019-04-29T11:08:24.202Z,13.31
2019-04-29T11:13:31.788Z,12.52
2019-04-29T11:18:39.418Z,12.28
2019-04-29T11:23:50.605Z,14.37
2019-04-29T11:28:54.837Z,14.13
2019-04-29T11:34:01.241Z,12.96
2019-04-29T11:39:09.208Z,13.83
2019-04-29T11:44:15.990Z,12.00
2019-04-29T11:49:23.674Z,11.89
2019-04-29T11:54:31.264Z,12.07
2019-04-29T11:59:39.037Z,11.38
2019-04-29T12:04:46.634Z,13.57
2019-04-29T12:09:54.261Z,12.86
2019-04-29T12:15:01.855Z,13.32
2019-04-29T12:20:09.497Z,11.21
2019-04-29T12:25:17.082Z,11.04
2019-04-29T12:30:24.771Z,10.57
2019-04-29T12:35:32.387Z,11.47
2019-04-29T12:40:40.087Z,10.25
2019-04-29T12:45:47.678Z,10.75
2019-04-29T12:50:57.533Z,10.71
2019-04-29T12:56:02.480Z,9.69
2019-04-29T13:01:10.159Z,11.64
2019-04-29T13:06:23.538Z,10.95
2019-04-29T13:11:36.027Z,11.55
2019-04-29T13:16:32.104Z,10.08
2019-04-29T13:21:39.864Z,10.82
2019-04-29T13:26:47.372Z,9.94
2019-04-29T13:31:54.982Z,10.57
2019-04-29T13:37:07.767Z,9.03
2019-04-29T13:42:15.360Z,10.96
2019-04-29T13:47:16.887Z,9.20
2019-04-29T13:52:24.525Z,10.21
2019-04-29T13:57:32.125Z,10.01
2019-04-29T14:02:39.770Z,9.30
2019-04-29T14:07:48.641Z,8.80
2019-04-29T14:13:09.381Z,8.30
2019-04-29T14:18:01.674Z,7.13
2019-04-29T14:23:09.356Z,7.87
2019-04-29T14:28:16.968Z,7.34
2019-04-29T14:33:26.123Z,7.63
2019-04-29T14:38:35.780Z,7.01
2019-04-29T14:43:38.985Z,6.86
2019-04-29T14:48:46.604Z,7.18
2019-04-29T14:53:56.743Z,7.89
2019-04-29T14:59:07.178Z,6.39
2019-04-29T15:04:17.959Z,6.54
2019-04-29T15:09:17.706Z,6.78
2019-04-29T15:14:23.805Z,6.84
2019-04-29T15:19:30.004Z,6.20
2019-04-29T15:24:37.690Z,6.17
2019-04-29T15:29:45.287Z,6.30
2019-04-29T15:34:52.984Z,6.47
2019-04-29T15:40:00.731Z,5.63
2019-04-29T15:45:08.284Z,6.63
2019-04-29T15:50:18.463Z,6.06
2019-04-29T15:55:23.054Z,6.94
2019-04-29T16:00:36.656Z,6.63
2019-04-29T16:10:44.928Z,7.98
2019-04-29T16:15:52.586Z,7.25
2019-04-29T16:21:00.181Z,6.76
2019-04-29T16:26:07.895Z,6.96
2019-04-29T16:31:15.488Z,7.30
2019-04-29T16:36:23.088Z,6.77
2019-04-29T16:41:30.693Z,7.94
2019-04-29T16:46:38.356Z,10.27
2019-04-29T16:51:47.975Z,7.71
2019-04-29T16:56:53.173Z,9.45
2019-04-29T17:02:00.771Z,8.03
2019-04-29T17:07:13.205Z,8.58
2019-04-29T17:12:15.639Z,8.15
2019-04-29T17:17:28.906Z,10.20
2019-04-29T17:22:35.523Z,8.81
2019-04-29T17:27:42.334Z,9.39
2019-04-29T17:32:47.851Z,10.27
2019-04-29T17:35:13.889Z,7.61
2019-04-29T17:37:52.032Z,9.36
2019-04-29T17:43:00.834Z,10.28
2019-04-29T17:48:06.973Z,9.88
2019-04-29T17:53:15.264Z,9.08
2019-04-29T17:58:22.001Z,11.06
2019-04-29T18:03:29.959Z,11.10
2019-04-29T18:08:37.980Z,11.89
2019-04-29T18:13:45.997Z,11.04
2019-04-29T18:18:57.908Z,11.55
2019-04-29T18:24:01.323Z,12.38
2019-04-29T18:29:09.244Z,13.08
2019-04-29T18:34:17.154Z,12.50
2019-04-29T18:39:28.539Z,12.90
2019-04-29T18:44:32.689Z,12.65
2019-04-29T18:49:40.715Z,12.83
2019-04-29T18:54:48.722Z,12.13
2019-04-29T18:59:56.745Z,11.02
2019-04-29T19:05:04.666Z,10.71
2019-04-29T19:10:14.232Z,10.47
2019-04-29T19:15:20.206Z,11.14
2019-04-29T19:20:28.105Z,11.87
2019-04-29T19:25:36.138Z,13.08
2019-04-29T19:30:45.135Z,12.40
2019-04-29T19:35:51.657Z,11.98
2019-04-29T19:40:59.643Z,11.92
2019-04-29T19:46:07.457Z,13.10
2019-04-29T19:51:18.278Z,10.48
2019-04-29T19:56:24.434Z,12.42
2019-04-29T20:01:31.913Z,11.76
2019-04-29T20:06:37.835Z,11.46
2019-04-29T20:11:45.839Z,12.99
2019-04-29T20:16:57.555Z,11.45
2019-04-29T20:23:27.471Z,12.42
2019-04-29T20:27:06.729Z,12.52
2019-04-29T20:32:16.233Z,11.41
2019-04-29T20:37:21.654Z,11.16
2019-04-29T20:42:29.312Z,10.15
2019-04-29T20:47:40.495Z,11.43
2019-04-29T20:52:44.628Z,9.85
2019-04-29T20:57:52.626Z,10.86
2019-04-29T21:02:59.277Z,11.80
2019-04-29T21:08:14.319Z,11.59
2019-04-29T21:13:16.413Z,12.81
2019-04-29T21:18:21.706Z,12.87
2019-04-29T21:23:31.536Z,13.02
2019-04-29T21:28:41.099Z,12.39
2019-04-29T21:33:45.487Z,13.25
2019-04-29T21:38:55.738Z,13.36
2019-04-29T21:43:58.038Z,13.61
2019-04-29T21:49:11.500Z,14.05
2019-04-29T21:54:14.216Z,17.18
2019-04-29T21:59:19.959Z,16.12
2019-04-29T22:04:27.649Z,16.60
2019-04-29T22:09:36.363Z,14.92
2019-04-29T22:14:45.073Z,15.41
2019-04-29T22:19:49.523Z,14.42
2019-04-29T22:25:04.660Z,16.19
2019-04-29T22:30:05.770Z,15.32
2019-04-29T22:35:11.637Z,16.23
2019-04-29T22:40:19.222Z,17.41
2019-04-29T22:45:29.491Z,17.57
2019-04-29T22:50:37.998Z,18.98
2019-04-29T22:55:41.172Z,18.77
2019-04-29T23:00:48.776Z,19.63
2019-04-29T23:06:00.032Z,19.53
2019-04-29T23:11:04.237Z,19.35
2019-04-29T23:16:10.765Z,18.92
2019-04-29T23:21:18.369Z,19.44
2019-04-29T23:26:26.041Z,21.34
2019-04-29T23:31:35.131Z,19.23
2019-04-29T23:36:44.619Z,19.59
2019-04-29T23:41:47.923Z,18.86
2019-04-29T23:46:55.565Z,19.91
2019-04-29T23:52:06.867Z,19.86
2019-04-29T23:57:10.336Z,21.15
